sensor_id;sensor_type;location;lat;lon;timestamp;P1;durP1;ratioP1;P2;durP2;ratioP2
55931;SDS011;41837;55.700;37.984;2022-09-03T00:00:53;4.07;;;2.20;;
55931;SDS011;41837;55.700;37.984;2022-09-03T00:08:56;8.32;;;2.05;;
55931;SDS011;41837;55.700;37.984;2022-09-03T00:11:47;10.30;;;2.08;;
55931;SDS011;41837;55.700;37.984;2022-09-03T00:14:19;4.88;;;2.13;;
55931;SDS011;41837;55.700;37.984;2022-09-03T00:16:48;3.70;;;1.70;;
55931;SDS011;41837;55.700;37.984;2022-09-03T00:19:19;4.03;;;2.00;;
55931;SDS011;41837;55.700;37.984;2022-09-03T00:21:48;6.50;;;1.67;;
55931;SDS011;41837;55.700;37.984;2022-09-03T00:24:17;5.45;;;1.70;;
55931;SDS011;41837;55.700;37.984;2022-09-03T00:26:45;6.93;;;2.08;;
55931;SDS011;41837;55.700;37.984;2022-09-03T00:29:15;2.85;;;1.88;;
55931;SDS011;41837;55.700;37.984;2022-09-03T00:31:46;5.95;;;1.30;;
55931;SDS011;41837;55.700;37.984;2022-09-03T00:34:25;3.53;;;1.42;;
55931;SDS011;41837;55.700;37.984;2022-09-03T00:36:52;4.07;;;1.55;;
55931;SDS011;41837;55.700;37.984;2022-09-03T00:39:18;3.25;;;1.58;;
55931;SDS011;41837;55.700;37.984;2022-09-03T00:46:54;2.80;;;1.58;;
55931;SDS011;41837;55.700;37.984;2022-09-03T00:51:58;4.85;;;1.77;;
55931;SDS011;41837;55.700;37.984;2022-09-03T00:57:05;7.53;;;1.88;;
55931;SDS011;41837;55.700;37.984;2022-09-03T01:07:55;8.13;;;1.65;;
55931;SDS011;41837;55.700;37.984;2022-09-03T01:10:35;5.72;;;1.40;;
55931;SDS011;41837;55.700;37.984;2022-09-03T01:15:41;5.93;;;1.67;;
55931;SDS011;41837;55.700;37.984;2022-09-03T01:18:21;4.00;;;1.60;;
55931;SDS011;41837;55.700;37.984;2022-09-03T01:30:50;5.13;;;1.52;;
55931;SDS011;41837;55.700;37.984;2022-09-03T01:33:40;4.45;;;1.40;;
55931;SDS011;41837;55.700;37.984;2022-09-03T01:36:13;2.88;;;1.52;;
55931;SDS011;41837;55.700;37.984;2022-09-03T01:38:45;3.63;;;1.30;;
55931;SDS011;41837;55.700;37.984;2022-09-03T01:46:42;4.70;;;1.48;;
55931;SDS011;41837;55.700;37.984;2022-09-03T01:49:17;5.72;;;1.55;;
55931;SDS011;41837;55.700;37.984;2022-09-03T01:51:55;5.50;;;1.50;;
55931;SDS011;41837;55.700;37.984;2022-09-03T01:54:37;3.80;;;1.38;;
55931;SDS011;41837;55.700;37.984;2022-09-03T01:59:45;4.10;;;1.50;;
55931;SDS011;41837;55.700;37.984;2022-09-03T02:02:15;3.05;;;1.55;;
55931;SDS011;41837;55.700;37.984;2022-09-03T02:07:37;2.33;;;1.40;;
55931;SDS011;41837;55.700;37.984;2022-09-03T02:10:05;3.80;;;1.77;;
55931;SDS011;41837;55.700;37.984;2022-09-03T02:12:32;3.63;;;1.88;;
55931;SDS011;41837;55.700;37.984;2022-09-03T02:14:59;3.72;;;1.40;;
55931;SDS011;41837;55.700;37.984;2022-09-03T02:17:30;3.88;;;2.13;;
55931;SDS011;41837;55.700;37.984;2022-09-03T02:19:56;6.90;;;2.75;;
55931;SDS011;41837;55.700;37.984;2022-09-03T02:22:23;5.65;;;2.30;;
55931;SDS011;41837;55.700;37.984;2022-09-03T02:24:49;6.20;;;2.35;;
55931;SDS011;41837;55.700;37.984;2022-09-03T02:27:15;4.55;;;2.33;;
55931;SDS011;41837;55.700;37.984;2022-09-03T02:29:41;6.45;;;2.50;;
55931;SDS011;41837;55.700;37.984;2022-09-03T02:32:07;6.13;;;2.17;;
55931;SDS011;41837;55.700;37.984;2022-09-03T02:34:33;5.05;;;1.95;;
55931;SDS011;41837;55.700;37.984;2022-09-03T02:36:59;5.95;;;2.08;;
55931;SDS011;41837;55.700;37.984;2022-09-03T02:39:36;4.88;;;2.30;;
55931;SDS011;41837;55.700;37.984;2022-09-03T02:42:03;3.53;;;2.28;;
55931;SDS011;41837;55.700;37.984;2022-09-03T02:44:30;5.28;;;2.40;;
55931;SDS011;41837;55.700;37.984;2022-09-03T02:46:58;6.30;;;2.30;;
55931;SDS011;41837;55.700;37.984;2022-09-03T02:49:24;4.53;;;2.95;;
55931;SDS011;41837;55.700;37.984;2022-09-03T02:51:56;10.25;;;2.97;;
55931;SDS011;41837;55.700;37.984;2022-09-03T02:54:22;10.15;;;3.30;;
55931;SDS011;41837;55.700;37.984;2022-09-03T02:56:47;9.55;;;2.75;;
55931;SDS011;41837;55.700;37.984;2022-09-03T02:59:14;8.48;;;3.05;;
55931;SDS011;41837;55.700;37.984;2022-09-03T03:01:41;8.60;;;2.78;;
55931;SDS011;41837;55.700;37.984;2022-09-03T03:04:08;8.00;;;3.30;;
55931;SDS011;41837;55.700;37.984;2022-09-03T03:06:33;5.85;;;2.70;;
55931;SDS011;41837;55.700;37.984;2022-09-03T03:09:00;6.70;;;2.45;;
55931;SDS011;41837;55.700;37.984;2022-09-03T03:11:26;17.10;;;3.30;;
55931;SDS011;41837;55.700;37.984;2022-09-03T03:13:52;10.40;;;3.47;;
55931;SDS011;41837;55.700;37.984;2022-09-03T03:16:18;13.90;;;2.70;;
55931;SDS011;41837;55.700;37.984;2022-09-03T03:18:43;6.25;;;2.53;;
55931;SDS011;41837;55.700;37.984;2022-09-03T03:21:13;7.10;;;3.40;;
55931;SDS011;41837;55.700;37.984;2022-09-03T03:23:39;7.35;;;2.42;;
55931;SDS011;41837;55.700;37.984;2022-09-03T03:26:10;12.57;;;3.60;;
55931;SDS011;41837;55.700;37.984;2022-09-03T03:28:36;12.40;;;2.65;;
55931;SDS011;41837;55.700;37.984;2022-09-03T03:31:09;12.32;;;3.00;;
55931;SDS011;41837;55.700;37.984;2022-09-03T03:33:35;10.40;;;2.05;;
55931;SDS011;41837;55.700;37.984;2022-09-03T03:36:05;4.80;;;1.90;;
55931;SDS011;41837;55.700;37.984;2022-09-03T03:38:32;10.50;;;1.80;;
55931;SDS011;41837;55.700;37.984;2022-09-03T03:40:58;8.73;;;1.90;;
55931;SDS011;41837;55.700;37.984;2022-09-03T03:43:23;14.40;;;2.40;;
55931;SDS011;41837;55.700;37.984;2022-09-03T03:45:56;4.22;;;1.50;;
55931;SDS011;41837;55.700;37.984;2022-09-03T03:48:22;6.22;;;1.75;;
55931;SDS011;41837;55.700;37.984;2022-09-03T03:50:48;6.82;;;1.52;;
55931;SDS011;41837;55.700;37.984;2022-09-03T03:53:14;5.90;;;1.42;;
55931;SDS011;41837;55.700;37.984;2022-09-03T03:55:39;10.35;;;1.95;;
55931;SDS011;41837;55.700;37.984;2022-09-03T03:58:07;4.18;;;1.70;;
55931;SDS011;41837;55.700;37.984;2022-09-03T04:00:32;5.80;;;1.58;;
55931;SDS011;41837;55.700;37.984;2022-09-03T04:03:03;3.80;;;1.35;;
55931;SDS011;41837;55.700;37.984;2022-09-03T04:05:29;7.75;;;1.63;;
55931;SDS011;41837;55.700;37.984;2022-09-03T04:07:59;9.60;;;2.10;;
55931;SDS011;41837;55.700;37.984;2022-09-03T04:10:25;4.57;;;1.70;;
55931;SDS011;41837;55.700;37.984;2022-09-03T04:12:52;5.95;;;2.03;;
55931;SDS011;41837;55.700;37.984;2022-09-03T04:15:18;7.95;;;1.80;;
55931;SDS011;41837;55.700;37.984;2022-09-03T04:17:44;6.82;;;3.15;;
55931;SDS011;41837;55.700;37.984;2022-09-03T04:20:09;3.67;;;1.75;;
55931;SDS011;41837;55.700;37.984;2022-09-03T04:22:36;6.55;;;2.10;;
55931;SDS011;41837;55.700;37.984;2022-09-03T04:25:01;5.85;;;1.80;;
55931;SDS011;41837;55.700;37.984;2022-09-03T04:27:28;5.63;;;1.70;;
55931;SDS011;41837;55.700;37.984;2022-09-03T04:29:54;6.90;;;2.28;;
55931;SDS011;41837;55.700;37.984;2022-09-03T04:32:20;2.78;;;1.35;;
55931;SDS011;41837;55.700;37.984;2022-09-03T04:35:05;9.15;;;1.73;;
55931;SDS011;41837;55.700;37.984;2022-09-03T04:37:31;2.33;;;1.40;;
55931;SDS011;41837;55.700;37.984;2022-09-03T04:39:58;3.60;;;2.00;;
55931;SDS011;41837;55.700;37.984;2022-09-03T04:42:23;3.47;;;1.33;;
55931;SDS011;41837;55.700;37.984;2022-09-03T04:44:49;3.20;;;1.48;;
55931;SDS011;41837;55.700;37.984;2022-09-03T04:47:15;2.53;;;1.50;;
55931;SDS011;41837;55.700;37.984;2022-09-03T04:49:41;3.70;;;1.60;;
55931;SDS011;41837;55.700;37.984;2022-09-03T04:52:07;5.05;;;1.67;;
55931;SDS011;41837;55.700;37.984;2022-09-03T04:54:34;5.22;;;1.55;;
55931;SDS011;41837;55.700;37.984;2022-09-03T04:57:00;3.88;;;1.35;;
55931;SDS011;41837;55.700;37.984;2022-09-03T04:59:26;2.97;;;1.50;;
55931;SDS011;41837;55.700;37.984;2022-09-03T05:01:51;4.55;;;1.30;;
55931;SDS011;41837;55.700;37.984;2022-09-03T05:04:18;3.90;;;1.50;;
55931;SDS011;41837;55.700;37.984;2022-09-03T05:06:44;7.75;;;1.77;;
55931;SDS011;41837;55.700;37.984;2022-09-03T05:09:10;6.50;;;1.80;;
55931;SDS011;41837;55.700;37.984;2022-09-03T05:11:36;2.72;;;1.60;;
55931;SDS011;41837;55.700;37.984;2022-09-03T05:14:02;6.45;;;1.60;;
55931;SDS011;41837;55.700;37.984;2022-09-03T05:16:30;7.35;;;2.00;;
55931;SDS011;41837;55.700;37.984;2022-09-03T05:18:57;5.53;;;2.00;;
55931;SDS011;41837;55.700;37.984;2022-09-03T05:21:26;5.25;;;2.03;;
55931;SDS011;41837;55.700;37.984;2022-09-03T05:23:53;11.43;;;2.60;;
55931;SDS011;41837;55.700;37.984;2022-09-03T05:26:20;4.90;;;2.28;;
55931;SDS011;41837;55.700;37.984;2022-09-03T05:28:47;4.20;;;1.92;;
55931;SDS011;41837;55.700;37.984;2022-09-03T05:31:17;5.63;;;1.90;;
55931;SDS011;41837;55.700;37.984;2022-09-03T05:33:51;8.73;;;1.73;;
55931;SDS011;41837;55.700;37.984;2022-09-03T05:36:19;5.93;;;1.88;;
55931;SDS011;41837;55.700;37.984;2022-09-03T05:38:45;2.88;;;1.40;;
55931;SDS011;41837;55.700;37.984;2022-09-03T05:41:12;5.20;;;1.58;;
55931;SDS011;41837;55.700;37.984;2022-09-03T05:43:39;4.63;;;1.60;;
55931;SDS011;41837;55.700;37.984;2022-09-03T05:46:07;6.95;;;1.65;;
55931;SDS011;41837;55.700;37.984;2022-09-03T05:48:34;5.05;;;1.33;;
55931;SDS011;41837;55.700;37.984;2022-09-03T05:51:02;4.50;;;1.90;;
55931;SDS011;41837;55.700;37.984;2022-09-03T05:53:28;3.95;;;1.38;;
55931;SDS011;41837;55.700;37.984;2022-09-03T05:55:56;5.90;;;1.23;;
55931;SDS011;41837;55.700;37.984;2022-09-03T05:58:22;4.68;;;1.67;;
55931;SDS011;41837;55.700;37.984;2022-09-03T06:00:48;2.60;;;1.45;;
55931;SDS011;41837;55.700;37.984;2022-09-03T06:03:14;5.07;;;1.67;;
55931;SDS011;41837;55.700;37.984;2022-09-03T06:05:48;2.15;;;1.30;;
55931;SDS011;41837;55.700;37.984;2022-09-03T06:08:15;3.80;;;1.40;;
55931;SDS011;41837;55.700;37.984;2022-09-03T06:10:41;2.40;;;1.40;;
55931;SDS011;41837;55.700;37.984;2022-09-03T06:13:06;4.43;;;1.50;;
55931;SDS011;41837;55.700;37.984;2022-09-03T06:15:32;4.38;;;1.40;;
55931;SDS011;41837;55.700;37.984;2022-09-03T06:17:58;5.28;;;1.38;;
55931;SDS011;41837;55.700;37.984;2022-09-03T06:20:23;2.47;;;1.02;;
55931;SDS011;41837;55.700;37.984;2022-09-03T06:22:53;3.08;;;1.10;;
55931;SDS011;41837;55.700;37.984;2022-09-03T06:25:19;2.15;;;1.17;;
55931;SDS011;41837;55.700;37.984;2022-09-03T06:27:44;3.08;;;1.30;;
55931;SDS011;41837;55.700;37.984;2022-09-03T06:30:10;2.50;;;1.00;;
55931;SDS011;41837;55.700;37.984;2022-09-03T06:32:43;2.65;;;1.20;;
55931;SDS011;41837;55.700;37.984;2022-09-03T06:35:10;2.35;;;1.10;;
55931;SDS011;41837;55.700;37.984;2022-09-03T06:37:39;7.45;;;2.03;;
55931;SDS011;41837;55.700;37.984;2022-09-03T06:40:05;2.90;;;1.45;;
55931;SDS011;41837;55.700;37.984;2022-09-03T06:42:37;2.35;;;1.20;;
55931;SDS011;41837;55.700;37.984;2022-09-03T06:45:03;12.55;;;4.65;;
55931;SDS011;41837;55.700;37.984;2022-09-03T06:47:29;8.15;;;2.20;;
55931;SDS011;41837;55.700;37.984;2022-09-03T06:49:55;4.28;;;0.80;;
55931;SDS011;41837;55.700;37.984;2022-09-03T06:52:21;2.88;;;1.00;;
55931;SDS011;41837;55.700;37.984;2022-09-03T06:54:47;4.55;;;1.25;;
55931;SDS011;41837;55.700;37.984;2022-09-03T06:57:14;5.63;;;1.08;;
55931;SDS011;41837;55.700;37.984;2022-09-03T06:59:40;3.95;;;2.20;;
55931;SDS011;41837;55.700;37.984;2022-09-03T07:02:09;6.05;;;1.27;;
55931;SDS011;41837;55.700;37.984;2022-09-03T07:04:34;7.28;;;2.50;;
55931;SDS011;41837;55.700;37.984;2022-09-03T07:07:01;5.90;;;1.50;;
55931;SDS011;41837;55.700;37.984;2022-09-03T07:09:27;3.55;;;1.08;;
55931;SDS011;41837;55.700;37.984;2022-09-03T07:11:53;4.40;;;0.82;;
55931;SDS011;41837;55.700;37.984;2022-09-03T07:14:19;7.68;;;1.10;;
55931;SDS011;41837;55.700;37.984;2022-09-03T07:16:49;5.38;;;1.40;;
55931;SDS011;41837;55.700;37.984;2022-09-03T07:19:15;10.07;;;4.05;;
55931;SDS011;41837;55.700;37.984;2022-09-03T07:21:42;7.50;;;1.30;;
55931;SDS011;41837;55.700;37.984;2022-09-03T07:24:08;3.80;;;1.17;;
55931;SDS011;41837;55.700;37.984;2022-09-03T07:26:38;11.45;;;4.68;;
55931;SDS011;41837;55.700;37.984;2022-09-03T07:29:05;3.92;;;1.00;;
55931;SDS011;41837;55.700;37.984;2022-09-03T07:31:37;1.35;;;0.70;;
55931;SDS011;41837;55.700;37.984;2022-09-03T07:34:04;3.78;;;0.80;;
55931;SDS011;41837;55.700;37.984;2022-09-03T07:36:33;3.47;;;0.85;;
55931;SDS011;41837;55.700;37.984;2022-09-03T07:39:00;2.70;;;0.95;;
55931;SDS011;41837;55.700;37.984;2022-09-03T07:41:28;1.40;;;0.77;;
55931;SDS011;41837;55.700;37.984;2022-09-03T07:43:57;3.45;;;0.73;;
55931;SDS011;41837;55.700;37.984;2022-09-03T07:46:25;5.85;;;1.00;;
55931;SDS011;41837;55.700;37.984;2022-09-03T07:48:55;1.73;;;0.80;;
55931;SDS011;41837;55.700;37.984;2022-09-03T07:51:22;3.67;;;0.95;;
55931;SDS011;41837;55.700;37.984;2022-09-03T07:53:51;5.72;;;1.20;;
55931;SDS011;41837;55.700;37.984;2022-09-03T07:56:18;11.48;;;1.40;;
55931;SDS011;41837;55.700;37.984;2022-09-03T07:58:44;2.55;;;1.00;;
55931;SDS011;41837;55.700;37.984;2022-09-03T08:01:13;2.67;;;0.70;;
55931;SDS011;41837;55.700;37.984;2022-09-03T08:03:44;3.67;;;1.17;;
55931;SDS011;41837;55.700;37.984;2022-09-03T08:06:12;5.47;;;1.20;;
55931;SDS011;41837;55.700;37.984;2022-09-03T08:08:39;6.43;;;1.70;;
55931;SDS011;41837;55.700;37.984;2022-09-03T08:11:09;6.93;;;1.27;;
55931;SDS011;41837;55.700;37.984;2022-09-03T08:13:46;3.80;;;1.17;;
55931;SDS011;41837;55.700;37.984;2022-09-03T08:16:13;3.08;;;0.60;;
55931;SDS011;41837;55.700;37.984;2022-09-03T08:18:39;7.38;;;1.10;;
55931;SDS011;41837;55.700;37.984;2022-09-03T08:21:07;4.95;;;0.90;;
55931;SDS011;41837;55.700;37.984;2022-09-03T08:23:37;4.00;;;0.80;;
55931;SDS011;41837;55.700;37.984;2022-09-03T08:26:03;8.73;;;1.20;;
55931;SDS011;41837;55.700;37.984;2022-09-03T08:28:29;4.32;;;1.05;;
55931;SDS011;41837;55.700;37.984;2022-09-03T08:30:57;3.00;;;0.70;;
55931;SDS011;41837;55.700;37.984;2022-09-03T08:33:23;2.97;;;0.75;;
55931;SDS011;41837;55.700;37.984;2022-09-03T08:36:05;5.32;;;0.98;;
55931;SDS011;41837;55.700;37.984;2022-09-03T08:38:32;4.28;;;1.10;;
55931;SDS011;41837;55.700;37.984;2022-09-03T08:41:06;7.47;;;1.42;;
55931;SDS011;41837;55.700;37.984;2022-09-03T08:43:42;4.72;;;1.02;;
55931;SDS011;41837;55.700;37.984;2022-09-03T08:46:16;2.72;;;0.95;;
55931;SDS011;41837;55.700;37.984;2022-09-03T08:48:42;1.45;;;0.82;;
55931;SDS011;41837;55.700;37.984;2022-09-03T08:51:11;1.35;;;0.95;;
55931;SDS011;41837;55.700;37.984;2022-09-03T08:53:48;6.70;;;0.90;;
55931;SDS011;41837;55.700;37.984;2022-09-03T08:56:20;2.10;;;1.00;;
55931;SDS011;41837;55.700;37.984;2022-09-03T08:58:49;3.13;;;0.80;;
55931;SDS011;41837;55.700;37.984;2022-09-03T09:14:27;3.25;;;1.00;;
55931;SDS011;41837;55.700;37.984;2022-09-03T09:22:04;2.53;;;1.05;;
55931;SDS011;41837;55.700;37.984;2022-09-03T09:24:36;8.38;;;1.63;;
55931;SDS011;41837;55.700;37.984;2022-09-03T09:27:05;4.88;;;1.17;;
55931;SDS011;41837;55.700;37.984;2022-09-03T09:29:32;2.40;;;1.10;;
55931;SDS011;41837;55.700;37.984;2022-09-03T09:32:00;4.47;;;1.08;;
55931;SDS011;41837;55.700;37.984;2022-09-03T09:34:26;2.70;;;1.25;;
55931;SDS011;41837;55.700;37.984;2022-09-03T09:36:53;3.30;;;1.30;;
55931;SDS011;41837;55.700;37.984;2022-09-03T09:39:20;0.95;;;0.60;;
55931;SDS011;41837;55.700;37.984;2022-09-03T09:41:57;4.03;;;0.90;;
55931;SDS011;41837;55.700;37.984;2022-09-03T09:44:24;1.60;;;0.68;;
55931;SDS011;41837;55.700;37.984;2022-09-03T09:46:50;2.13;;;0.77;;
55931;SDS011;41837;55.700;37.984;2022-09-03T09:52:12;2.30;;;1.00;;
55931;SDS011;41837;55.700;37.984;2022-09-03T09:54:40;5.50;;;1.23;;
55931;SDS011;41837;55.700;37.984;2022-09-03T09:57:07;4.78;;;1.08;;
55931;SDS011;41837;55.700;37.984;2022-09-03T09:59:38;4.55;;;1.50;;
55931;SDS011;41837;55.700;37.984;2022-09-03T10:02:09;2.28;;;1.10;;
55931;SDS011;41837;55.700;37.984;2022-09-03T10:04:36;5.22;;;1.13;;
55931;SDS011;41837;55.700;37.984;2022-09-03T10:07:23;1.45;;;0.50;;
55931;SDS011;41837;55.700;37.984;2022-09-03T10:09:59;4.35;;;1.13;;
55931;SDS011;41837;55.700;37.984;2022-09-03T10:15:04;9.75;;;0.90;;
55931;SDS011;41837;55.700;37.984;2022-09-03T10:20:06;2.35;;;0.63;;
55931;SDS011;41837;55.700;37.984;2022-09-03T10:23:09;3.67;;;0.80;;
55931;SDS011;41837;55.700;37.984;2022-09-03T10:25:37;4.30;;;0.88;;
55931;SDS011;41837;55.700;37.984;2022-09-03T10:28:05;2.50;;;0.70;;
55931;SDS011;41837;55.700;37.984;2022-09-03T10:30:36;1.85;;;0.80;;
55931;SDS011;41837;55.700;37.984;2022-09-03T10:33:25;4.47;;;0.93;;
55931;SDS011;41837;55.700;37.984;2022-09-03T10:35:55;3.78;;;0.80;;
55931;SDS011;41837;55.700;37.984;2022-09-03T10:38:26;2.78;;;0.68;;
55931;SDS011;41837;55.700;37.984;2022-09-03T10:41:00;3.58;;;0.80;;
55931;SDS011;41837;55.700;37.984;2022-09-03T10:43:39;0.95;;;0.45;;
55931;SDS011;41837;55.700;37.984;2022-09-03T10:46:10;1.92;;;0.80;;
55931;SDS011;41837;55.700;37.984;2022-09-03T10:59:09;6.47;;;0.70;;
55931;SDS011;41837;55.700;37.984;2022-09-03T11:06:58;8.07;;;0.80;;
55931;SDS011;41837;55.700;37.984;2022-09-03T11:09:32;3.67;;;0.75;;
55931;SDS011;41837;55.700;37.984;2022-09-03T11:12:07;2.05;;;0.73;;
55931;SDS011;41837;55.700;37.984;2022-09-03T11:14:37;4.63;;;0.60;;
55931;SDS011;41837;55.700;37.984;2022-09-03T11:17:14;2.05;;;0.80;;
55931;SDS011;41837;55.700;37.984;2022-09-03T11:22:05;4.15;;;0.90;;
55931;SDS011;41837;55.700;37.984;2022-09-03T11:24:32;8.73;;;1.33;;
55931;SDS011;41837;55.700;37.984;2022-09-03T11:29:44;2.55;;;0.60;;
55931;SDS011;41837;55.700;37.984;2022-09-03T11:39:39;17.52;;;1.13;;
55931;SDS011;41837;55.700;37.984;2022-09-03T11:42:10;5.45;;;0.82;;
55931;SDS011;41837;55.700;37.984;2022-09-03T11:47:13;1.17;;;0.60;;
55931;SDS011;41837;55.700;37.984;2022-09-03T11:49:51;5.32;;;0.60;;
55931;SDS011;41837;55.700;37.984;2022-09-03T11:52:25;5.55;;;0.75;;
55931;SDS011;41837;55.700;37.984;2022-09-03T11:54:52;1.25;;;0.60;;
55931;SDS011;41837;55.700;37.984;2022-09-03T11:58:08;2.90;;;0.60;;
55931;SDS011;41837;55.700;37.984;2022-09-03T12:00:09;1.45;;;0.80;;
55931;SDS011;41837;55.700;37.984;2022-09-03T12:02:36;1.55;;;0.68;;
55931;SDS011;41837;55.700;37.984;2022-09-03T12:12:59;1.13;;;0.60;;
55931;SDS011;41837;55.700;37.984;2022-09-03T12:15:45;1.33;;;0.80;;
55931;SDS011;41837;55.700;37.984;2022-09-03T12:18:21;3.92;;;1.00;;
55931;SDS011;41837;55.700;37.984;2022-09-03T12:26:05;2.55;;;0.70;;
55931;SDS011;41837;55.700;37.984;2022-09-03T12:28:34;2.65;;;1.20;;
55931;SDS011;41837;55.700;37.984;2022-09-03T12:31:05;5.30;;;1.38;;
55931;SDS011;41837;55.700;37.984;2022-09-03T12:33:32;3.50;;;1.30;;
55931;SDS011;41837;55.700;37.984;2022-09-03T12:35:59;4.22;;;1.00;;
55931;SDS011;41837;55.700;37.984;2022-09-03T12:38:26;2.13;;;0.80;;
55931;SDS011;41837;55.700;37.984;2022-09-03T12:40:54;7.88;;;0.82;;
55931;SDS011;41837;55.700;37.984;2022-09-03T12:43:25;3.80;;;1.73;;
55931;SDS011;41837;55.700;37.984;2022-09-03T12:45:51;3.90;;;1.52;;
55931;SDS011;41837;55.700;37.984;2022-09-03T12:48:19;1.40;;;0.80;;
55931;SDS011;41837;55.700;37.984;2022-09-03T12:50:46;2.67;;;0.52;;
55931;SDS011;41837;55.700;37.984;2022-09-03T12:53:20;3.03;;;0.50;;
55931;SDS011;41837;55.700;37.984;2022-09-03T13:00:45;3.15;;;0.60;;
55931;SDS011;41837;55.700;37.984;2022-09-03T13:03:17;1.20;;;0.63;;
55931;SDS011;41837;55.700;37.984;2022-09-03T13:05:55;1.00;;;0.77;;
55931;SDS011;41837;55.700;37.984;2022-09-03T13:08:25;2.25;;;0.60;;
55931;SDS011;41837;55.700;37.984;2022-09-03T13:10:53;1.80;;;0.80;;
55931;SDS011;41837;55.700;37.984;2022-09-03T13:13:28;3.90;;;0.90;;
55931;SDS011;41837;55.700;37.984;2022-09-03T13:16:06;3.80;;;1.65;;
55931;SDS011;41837;55.700;37.984;2022-09-03T13:31:43;6.70;;;2.70;;
55931;SDS011;41837;55.700;37.984;2022-09-03T13:34:16;3.15;;;1.23;;
55931;SDS011;41837;55.700;37.984;2022-09-03T13:36:53;11.60;;;2.85;;
55931;SDS011;41837;55.700;37.984;2022-09-03T13:39:23;6.53;;;1.45;;
55931;SDS011;41837;55.700;37.984;2022-09-03T13:41:56;16.63;;;8.85;;
55931;SDS011;41837;55.700;37.984;2022-09-03T13:44:33;22.27;;;9.88;;
55931;SDS011;41837;55.700;37.984;2022-09-03T13:55:07;4.38;;;1.40;;
55931;SDS011;41837;55.700;37.984;2022-09-03T13:57:37;2.78;;;1.50;;
55931;SDS011;41837;55.700;37.984;2022-09-03T14:00:05;3.95;;;1.42;;
55931;SDS011;41837;55.700;37.984;2022-09-03T14:07:40;4.90;;;1.65;;
55931;SDS011;41837;55.700;37.984;2022-09-03T14:10:15;2.85;;;1.48;;
55931;SDS011;41837;55.700;37.984;2022-09-03T14:12:48;3.60;;;2.08;;
55931;SDS011;41837;55.700;37.984;2022-09-03T14:18:02;8.43;;;2.08;;
55931;SDS011;41837;55.700;37.984;2022-09-03T14:20:36;3.50;;;1.75;;
55931;SDS011;41837;55.700;37.984;2022-09-03T14:25:54;2.55;;;1.02;;
55931;SDS011;41837;55.700;37.984;2022-09-03T14:28:30;4.45;;;0.90;;
55931;SDS011;41837;55.700;37.984;2022-09-03T14:36:10;7.30;;;2.65;;
55931;SDS011;41837;55.700;37.984;2022-09-03T14:38:57;6.80;;;3.28;;
55931;SDS011;41837;55.700;37.984;2022-09-03T14:44:36;5.22;;;1.85;;
55931;SDS011;41837;55.700;37.984;2022-09-03T14:47:15;1.85;;;1.10;;
55931;SDS011;41837;55.700;37.984;2022-09-03T14:52:32;5.65;;;2.20;;
55931;SDS011;41837;55.700;37.984;2022-09-03T15:03:06;8.68;;;2.45;;
55931;SDS011;41837;55.700;37.984;2022-09-03T15:10:45;14.07;;;3.97;;
55931;SDS011;41837;55.700;37.984;2022-09-03T15:15:47;17.27;;;6.70;;
55931;SDS011;41837;55.700;37.984;2022-09-03T15:30:49;19.60;;;8.80;;
55931;SDS011;41837;55.700;37.984;2022-09-03T15:33:23;19.05;;;8.02;;
55931;SDS011;41837;55.700;37.984;2022-09-03T15:35:59;10.32;;;3.92;;
55931;SDS011;41837;55.700;37.984;2022-09-03T15:40:57;10.38;;;5.22;;
55931;SDS011;41837;55.700;37.984;2022-09-03T15:43:28;12.05;;;7.15;;
55931;SDS011;41837;55.700;37.984;2022-09-03T15:46:02;11.48;;;4.30;;
55931;SDS011;41837;55.700;37.984;2022-09-03T15:48:37;8.93;;;3.47;;
55931;SDS011;41837;55.700;37.984;2022-09-03T15:53:41;6.85;;;1.80;;
55931;SDS011;41837;55.700;37.984;2022-09-03T15:56:27;2.35;;;1.20;;
55931;SDS011;41837;55.700;37.984;2022-09-03T15:59:02;7.60;;;1.52;;
55931;SDS011;41837;55.700;37.984;2022-09-03T16:01:51;5.90;;;1.65;;
55931;SDS011;41837;55.700;37.984;2022-09-03T16:04:34;10.80;;;2.40;;
55931;SDS011;41837;55.700;37.984;2022-09-03T16:18:01;5.82;;;1.50;;
55931;SDS011;41837;55.700;37.984;2022-09-03T16:26:02;3.92;;;1.38;;
55931;SDS011;41837;55.700;37.984;2022-09-03T16:44:20;18.65;;;7.97;;
55931;SDS011;41837;55.700;37.984;2022-09-03T16:51:53;7.65;;;2.70;;
55931;SDS011;41837;55.700;37.984;2022-09-03T16:54:31;4.93;;;2.30;;
55931;SDS011;41837;55.700;37.984;2022-09-03T17:05:27;10.95;;;3.42;;
55931;SDS011;41837;55.700;37.984;2022-09-03T17:08:11;17.83;;;5.70;;
55931;SDS011;41837;55.700;37.984;2022-09-03T17:13:29;15.52;;;6.20;;
55931;SDS011;41837;55.700;37.984;2022-09-03T17:18:32;21.85;;;8.77;;
55931;SDS011;41837;55.700;37.984;2022-09-03T17:26:09;22.02;;;10.52;;
55931;SDS011;41837;55.700;37.984;2022-09-03T17:28:47;14.65;;;6.57;;
55931;SDS011;41837;55.700;37.984;2022-09-03T17:31:34;19.05;;;7.38;;
55931;SDS011;41837;55.700;37.984;2022-09-03T17:36:37;29.38;;;13.80;;
55931;SDS011;41837;55.700;37.984;2022-09-03T17:41:44;27.50;;;6.90;;
55931;SDS011;41837;55.700;37.984;2022-09-03T17:49:42;38.35;;;7.43;;
55931;SDS011;41837;55.700;37.984;2022-09-03T17:52:29;34.00;;;7.50;;
55931;SDS011;41837;55.700;37.984;2022-09-03T17:55:20;49.50;;;11.90;;
55931;SDS011;41837;55.700;37.984;2022-09-03T17:57:53;48.28;;;12.02;;
55931;SDS011;41837;55.700;37.984;2022-09-03T18:00:25;45.50;;;12.10;;
55931;SDS011;41837;55.700;37.984;2022-09-03T18:05:57;56.58;;;13.68;;
55931;SDS011;41837;55.700;37.984;2022-09-03T18:08:32;31.40;;;9.18;;
55931;SDS011;41837;55.700;37.984;2022-09-03T18:11:11;24.00;;;5.68;;
55931;SDS011;41837;55.700;37.984;2022-09-03T18:13:44;20.05;;;6.15;;
55931;SDS011;41837;55.700;37.984;2022-09-03T18:16:34;22.73;;;5.60;;
55931;SDS011;41837;55.700;37.984;2022-09-03T18:21:59;12.07;;;3.78;;
55931;SDS011;41837;55.700;37.984;2022-09-03T18:24:53;11.93;;;3.90;;
55931;SDS011;41837;55.700;37.984;2022-09-03T18:27:43;8.45;;;3.35;;
55931;SDS011;41837;55.700;37.984;2022-09-03T18:30:30;12.13;;;3.50;;
55931;SDS011;41837;55.700;37.984;2022-09-03T18:33:16;12.98;;;3.38;;
55931;SDS011;41837;55.700;37.984;2022-09-03T18:36:03;9.88;;;3.50;;
55931;SDS011;41837;55.700;37.984;2022-09-03T18:38:48;10.55;;;3.80;;
55931;SDS011;41837;55.700;37.984;2022-09-03T18:41:47;10.02;;;3.45;;
55931;SDS011;41837;55.700;37.984;2022-09-03T18:50:29;10.02;;;3.60;;
55931;SDS011;41837;55.700;37.984;2022-09-03T18:56:17;15.70;;;4.20;;
55931;SDS011;41837;55.700;37.984;2022-09-03T18:59:12;11.95;;;6.20;;
55931;SDS011;41837;55.700;37.984;2022-09-03T19:02:01;10.75;;;5.70;;
55931;SDS011;41837;55.700;37.984;2022-09-03T19:10:25;10.35;;;4.22;;
55931;SDS011;41837;55.700;37.984;2022-09-03T19:19:07;17.35;;;4.80;;
55931;SDS011;41837;55.700;37.984;2022-09-03T19:21:58;15.38;;;6.43;;
55931;SDS011;41837;55.700;37.984;2022-09-03T19:24:47;27.17;;;9.15;;
55931;SDS011;41837;55.700;37.984;2022-09-03T19:30:32;36.92;;;10.48;;
55931;SDS011;41837;55.700;37.984;2022-09-03T19:33:25;30.33;;;9.00;;
55931;SDS011;41837;55.700;37.984;2022-09-03T19:36:19;37.50;;;9.02;;
55931;SDS011;41837;55.700;37.984;2022-09-03T19:42:01;33.17;;;10.93;;
55931;SDS011;41837;55.700;37.984;2022-09-03T19:47:53;45.22;;;13.38;;
55931;SDS011;41837;55.700;37.984;2022-09-03T19:50:40;58.67;;;16.33;;
55931;SDS011;41837;55.700;37.984;2022-09-03T19:53:28;42.22;;;12.93;;
55931;SDS011;41837;55.700;37.984;2022-09-03T19:56:22;36.83;;;11.25;;